Terminal Aerodrome Forecast
Issued by NWS St Louis, MO

Home | Current Version | Previous Version | Text Only | Print | Product List | Glossary On
Versions: 1 2 3 4 5 6 7 8 9 10 11 12 13 14 15 16 17 18 19 20 21 22 23 24 25 26 27 28 29
000
FTUS43 KLSX 221429 AAA
TAFCOU
TAF AMD
KCOU 221429Z 2214/2312 05007KT 1SM BR OVC004
     FM221600 07007KT P6SM OVC008
     FM222300 10005KT P6SM VCSH OVC008
     FM230100 11005KT 5SM -SHRA OVC005
     FM230700 17004KT P6SM OVC005=

USA.gov is the U.S. government's official web portal to all federal, state and local government web resources and services.